Lionhead Wind

Lionhead weather stationLocated on Lionhead Ridge near West Yellowstone. Use the nearest SNOTEL station for snow depth data: Madison Plateau. The data on this page is also available to view at dataGarrison.com.

Elevation
9420ft
Jump to table bottom
Date Time Temperature
deg F
RH, % Wind Speed Wind Gust Wind Direction Pressure Light
02/05/23 00:00 15.5 98 13 19 SW - 206 715.840 0
02/04/23 23:00 15.5 98 14 21 SW - 213 716.200 0
02/04/23 22:00 15.6 98 11 18 SW - 213 716.820 0
02/04/23 21:00 15.2 98 12 17 SW - 226 716.640 0
02/04/23 20:00 14.7 98 14 19 SW - 220 716.940 0
02/04/23 19:00 15.2 98 16 21 SW - 222 717.020 0
02/04/23 18:00 15.2 98 17 24 SW - 215 716.940 0
02/04/23 17:00 15.3 98 17 24 SW - 215 716.860 0
02/04/23 16:00 15.6 99 20 30 SW - 223 716.600 0
02/04/23 15:00 16.3 98 19 28 SW - 223 716.560 0
02/04/23 14:00 32.0 98 20 30 SW - 223 716.760 0
02/04/23 13:00 16.4 98 16 26 SW - 227 716.660 0
02/04/23 12:00 16.3 98 11 17 SW - 237 717.500 0
02/04/23 11:00 14.1 97 14 23 SW - 236 717.160 0
02/04/23 10:00 12.8 97 10 16 SW - 211 717.500 0
02/04/23 09:00 11.1 96 12 19 S - 191 717.220 0
02/04/23 08:00 10.4 96 16 24 SW - 225 716.820 0
02/04/23 07:00 10.7 97 15 22 SW - 225 716.320 0
02/04/23 06:00 11.2 97 14 24 SW - 222 716.740 0
02/04/23 05:00 15.5 89 17 29 W - 251 716.560 0
02/04/23 04:00 15.5 89 17 28 SW - 247 716.340 0
02/04/23 03:00 14.7 96 17 30 SW - 240 716.180 0
02/04/23 02:00 13.0 100 26 44 SW - 230 716.000 0
02/04/23 01:00 14.1 99 27 38 SW - 230 715.780 0
02/04/23 00:00 14.2 98 27 41 SW - 229 716.260 0
02/03/23 23:00 14.4 96 26 36 SW - 237 716.380 0
02/03/23 22:00 13.9 97 24 33 SW - 232 715.920 0
02/03/23 21:00 16.1 94 15 27 W - 253 716.480 0
02/03/23 20:00 16.1 91 22 34 SW - 226 716.940 0
02/03/23 19:00 17.3 87 33 49 SW - 229 715.920 0
02/03/23 18:00 16.8 90 37 49 SW - 223 715.960 0
02/03/23 17:00 18.0 83 29 41 SW - 223 716.580 0
02/03/23 16:00 18.9 85 29 42 SW - 220 717.380 0
02/03/23 15:00 20.0 79 31 55 SW - 229 717.040 0
02/03/23 14:00 19.9 82 28 38 SW - 222 717.500 0
02/03/23 13:00 19.8 79 25 39 SW - 212 718.400 0
02/03/23 12:00 19.7 81 25 34 SW - 209 719.460 0
02/03/23 11:00 18.7 81 28 37 SW - 209 719.840 0
02/03/23 10:00 17.8 84 27 37 SW - 211 720.040 0
02/03/23 09:00 16.8 87 27 39 SW - 222 720.280 0
02/03/23 08:00 14.5 94 24 33 SW - 219 720.280 0
02/03/23 07:00 13.7 97 23 30 SW - 229 720.740 0
02/03/23 06:00 13.1 97 24 31 SW - 225 720.800 0
02/03/23 05:00 13.1 97 26 37 SW - 232 721.020 0
02/03/23 04:00 13.1 98 24 36 SW - 230 721.260 0
02/03/23 03:00 12.1 98 20 27 SW - 227 721.780 0
02/03/23 02:00 12.5 98 23 31 SW - 227 722.020 0
02/03/23 01:00 12.2 97 21 30 SW - 226 721.900 0
02/03/23 00:00 12.3 97 25 34 SW - 222 722.480 0
02/02/23 23:00 12.4 97 26 36 SW - 222 722.300 0